Time;durP1;ratioP1;P1;durP2;ratioP2;P2;SDS_P1;SDS_P2;PMS_P1;PMS_P2;Temp;Humidity;BMP_temperature;BMP_pressure;BME280_temperature;BME280_humidity;BME280_pressure;Samples;Min_cycle;Max_cycle;Signal;HPM_P1;HPM_P2
2024/03/07 00:01:06;;;;;;;45.17;27.63;;;5.90;99.90;;;;;;5014199;28;20483;-72
2024/03/07 00:03:31;;;;;;;43.30;27.63;;;5.90;99.90;;;;;;5014964;28;20506;-71
2024/03/07 00:05:57;;;;;;;43.40;28.13;;;6.00;99.90;;;;;;5015885;28;20453;-71
2024/03/07 00:08:23;;;;;;;42.87;26.00;;;5.90;99.90;;;;;;4976943;28;20222;-73
2024/03/07 00:10:49;;;;;;;44.50;28.40;;;5.90;99.90;;;;;;5019094;28;20179;-70
2024/03/07 00:13:14;;;;;;;47.17;28.43;;;5.90;99.90;;;;;;5017960;28;20199;-68
2024/03/07 00:15:41;;;;;;;46.30;28.60;;;5.80;99.90;;;;;;4989827;28;20425;-71
2024/03/07 00:18:07;;;;;;;39.43;25.83;;;5.80;99.90;;;;;;5011694;28;20278;-69
2024/03/07 00:20:32;;;;;;;43.57;24.73;;;5.80;99.90;;;;;;5014693;28;20923;-68
2024/03/07 00:22:58;;;;;;;44.20;25.33;;;5.70;99.90;;;;;;5012488;28;20187;-70
2024/03/07 00:25:23;;;;;;;40.40;23.70;;;5.70;99.90;;;;;;5011058;28;20195;-71
2024/03/07 00:27:52;;;;;;;41.70;25.43;;;5.60;99.90;;;;;;5016210;28;20171;-68
2024/03/07 00:30:18;;;;;;;44.60;27.27;;;5.60;99.90;;;;;;5013847;28;20266;-70
2024/03/07 00:32:45;;;;;;;39.70;24.70;;;5.60;99.90;;;;;;5002518;28;20478;-70
2024/03/07 00:35:10;;;;;;;34.83;23.30;;;5.50;99.90;;;;;;5008878;28;20223;-69
2024/03/07 00:37:36;;;;;;;43.30;26.30;;;5.50;99.90;;;;;;5012567;28;20465;-70
2024/03/07 00:40:03;;;;;;;51.27;29.23;;;5.50;99.90;;;;;;5015828;28;20179;-69
2024/03/07 00:42:28;;;;;;;46.50;27.20;;;5.40;99.90;;;;;;5011896;28;20274;-69
2024/03/07 00:44:54;;;;;;;51.53;29.57;;;5.50;99.90;;;;;;5011333;28;20604;-69
2024/03/07 00:47:20;;;;;;;48.37;28.93;;;5.50;99.90;;;;;;5016012;28;20210;-70
2024/03/07 00:49:48;;;;;;;45.77;27.40;;;5.50;99.90;;;;;;5006418;28;20184;-68
2024/03/07 00:52:15;;;;;;;44.97;27.80;;;5.50;99.90;;;;;;5014958;28;20392;-68
2024/03/07 00:54:40;;;;;;;52.97;30.67;;;5.50;99.90;;;;;;5015603;28;20422;-70
2024/03/07 00:57:07;;;;;;;49.03;30.27;;;5.50;99.90;;;;;;5008244;28;20912;-67
2024/03/07 00:59:33;;;;;;;44.70;27.70;;;5.40;99.90;;;;;;5009275;28;20211;-69
2024/03/07 01:01:59;;;;;;;41.17;27.57;;;5.40;99.90;;;;;;5004206;28;20434;-68
2024/03/07 01:04:30;;;;;;;46.97;27.27;;;5.40;99.90;;;;;;5007711;28;20943;-69
2024/03/07 01:06:57;;;;;;;52.80;28.73;;;5.40;99.90;;;;;;5013689;28;20203;-68
2024/03/07 01:09:23;;;;;;;45.43;26.90;;;5.40;99.90;;;;;;5015820;28;20410;-67
2024/03/07 01:11:49;;;;;;;44.83;26.63;;;5.40;99.90;;;;;;5014957;28;20426;-68
2024/03/07 01:14:15;;;;;;;44.37;27.60;;;5.40;99.90;;;;;;5009803;28;20204;-68
2024/03/07 01:16:41;;;;;;;47.33;26.40;;;5.40;99.90;;;;;;5004046;28;20442;-70
2024/03/07 01:19:07;;;;;;;46.47;25.83;;;5.40;99.90;;;;;;5010960;28;20226;-70
2024/03/07 01:21:33;;;;;;;46.97;27.50;;;5.30;99.90;;;;;;5011329;28;20677;-69
2024/03/07 01:24:00;;;;;;;46.57;27.47;;;5.40;99.90;;;;;;5009863;28;20474;-70
2024/03/07 01:26:29;;;;;;;43.73;26.50;;;5.30;99.90;;;;;;5016289;28;20441;-70
2024/03/07 01:28:56;;;;;;;47.43;25.63;;;5.30;99.90;;;;;;5010923;28;20765;-68
2024/03/07 01:31:22;;;;;;;38.63;23.83;;;5.30;99.90;;;;;;5005347;28;20758;-67
2024/03/07 01:33:48;;;;;;;44.53;23.53;;;5.20;99.90;;;;;;5008866;28;20494;-68
2024/03/07 01:36:14;;;;;;;40.90;23.73;;;5.20;99.90;;;;;;5013112;28;20532;-70
2024/03/07 01:38:39;;;;;;;40.67;24.07;;;5.10;99.90;;;;;;5014807;28;20189;-69
2024/03/07 01:41:05;;;;;;;40.27;23.80;;;5.10;99.90;;;;;;5015093;28;20223;-69
2024/03/07 01:43:31;;;;;;;38.30;23.53;;;5.10;99.90;;;;;;5013406;28;20211;-68
2024/03/07 01:45:58;;;;;;;43.17;25.23;;;5.00;99.90;;;;;;5006085;28;20219;-70
2024/03/07 01:48:28;;;;;;;50.30;25.93;;;5.10;99.90;;;;;;5011636;28;20451;-68
2024/03/07 01:50:55;;;;;;;42.00;24.33;;;5.10;99.90;;;;;;5007360;28;20498;-69
2024/03/07 01:53:22;;;;;;;40.80;24.10;;;5.00;99.90;;;;;;5010891;28;20418;-68
2024/03/07 01:55:48;;;;;;;41.93;24.50;;;5.00;99.90;;;;;;5011097;28;20447;-66
2024/03/07 01:58:18;;;;;;;45.37;23.87;;;5.00;99.90;;;;;;5014570;28;20917;-69
2024/03/07 02:00:44;;;;;;;39.13;22.33;;;5.00;99.90;;;;;;5006298;28;20430;-69
2024/03/07 02:03:10;;;;;;;41.10;23.40;;;5.00;99.90;;;;;;5013090;28;20978;-68
2024/03/07 02:05:36;;;;;;;39.43;22.87;;;4.90;99.90;;;;;;5013701;28;20422;-67
2024/03/07 02:08:01;;;;;;;42.30;23.07;;;5.00;99.90;;;;;;5013561;28;20325;-65
2024/03/07 02:10:27;;;;;;;39.23;20.50;;;4.90;99.90;;;;;;5014769;28;20191;-69
2024/03/07 02:12:53;;;;;;;38.17;21.73;;;4.90;99.90;;;;;;5013845;28;20195;-69
2024/03/07 02:15:19;;;;;;;35.37;22.20;;;4.80;99.90;;;;;;5006545;28;20191;-68
2024/03/07 02:17:44;;;;;;;35.30;19.00;;;4.80;99.90;;;;;;5013228;28;20215;-68
2024/03/07 02:20:10;;;;;;;44.50;23.73;;;4.70;99.90;;;;;;5004678;28;20265;-67
2024/03/07 02:22:37;;;;;;;34.20;20.77;;;4.80;99.90;;;;;;5007914;28;20271;-67
2024/03/07 02:25:03;;;;;;;35.10;20.90;;;4.60;99.90;;;;;;5009995;28;20453;-69
2024/03/07 02:27:29;;;;;;;40.40;22.13;;;4.60;99.90;;;;;;5013874;28;20502;-69
2024/03/07 02:29:55;;;;;;;37.60;21.07;;;4.60;99.90;;;;;;5006743;28;20190;-67
2024/03/07 02:32:20;;;;;;;35.17;21.30;;;4.60;99.90;;;;;;5012894;28;20714;-67
2024/03/07 02:34:46;;;;;;;35.23;22.37;;;4.60;99.90;;;;;;5005248;28;20602;-69
2024/03/07 02:37:13;;;;;;;36.90;23.20;;;4.60;99.90;;;;;;5014474;28;20612;-68
2024/03/07 02:39:39;;;;;;;36.67;22.97;;;4.60;99.90;;;;;;5012294;28;20706;-68
2024/03/07 02:42:05;;;;;;;40.33;23.03;;;4.70;99.90;;;;;;5009202;28;20437;-68
2024/03/07 02:44:31;;;;;;;35.43;21.60;;;4.70;99.90;;;;;;5006392;28;20221;-67
2024/03/07 02:46:58;;;;;;;29.40;18.33;;;4.60;99.90;;;;;;5008003;28;20517;-69
2024/03/07 02:49:23;;;;;;;43.57;22.50;;;4.60;99.90;;;;;;5007727;28;20438;-69
2024/03/07 02:51:49;;;;;;;41.37;22.80;;;4.50;99.90;;;;;;5013485;28;20462;-69
2024/03/07 02:54:14;;;;;;;35.80;21.43;;;4.50;99.90;;;;;;5015723;28;20606;-66
2024/03/07 02:56:40;;;;;;;34.27;19.90;;;4.50;99.90;;;;;;5013829;28;20237;-68
2024/03/07 02:59:06;;;;;;;31.43;19.63;;;4.40;99.90;;;;;;5006509;28;20191;-70
2024/03/07 03:01:32;;;;;;;36.23;21.40;;;4.40;99.90;;;;;;5011831;28;20273;-69
2024/03/07 03:03:58;;;;;;;36.33;21.10;;;4.50;99.90;;;;;;5009070;28;20494;-68
2024/03/07 03:06:23;;;;;;;41.40;22.07;;;4.40;99.90;;;;;;5007433;28;20469;-69
2024/03/07 03:08:49;;;;;;;38.17;22.60;;;4.40;99.90;;;;;;5013795;28;20190;-70
2024/03/07 03:11:15;;;;;;;40.40;22.40;;;4.40;99.90;;;;;;5014520;28;20254;-69
2024/03/07 03:13:41;;;;;;;38.63;23.67;;;4.40;99.90;;;;;;5009977;28;20558;-67
2024/03/07 03:16:07;;;;;;;34.67;20.20;;;4.40;99.90;;;;;;5008509;28;20214;-68
2024/03/07 03:18:36;;;;;;;35.00;20.40;;;4.40;99.90;;;;;;5007919;28;20203;-66
2024/03/07 03:21:02;;;;;;;36.23;22.30;;;4.40;99.90;;;;;;5004593;28;20844;-70
2024/03/07 03:23:29;;;;;;;30.23;18.73;;;4.30;99.90;;;;;;5012298;28;20496;-67
2024/03/07 03:25:55;;;;;;;38.33;21.23;;;4.30;99.90;;;;;;5017049;28;20497;-68
2024/03/07 03:28:21;;;;;;;30.63;19.97;;;4.30;99.90;;;;;;5016143;28;20410;-68
2024/03/07 03:30:48;;;;;;;32.40;19.90;;;4.20;99.90;;;;;;5013841;28;20406;-68
2024/03/07 03:33:13;;;;;;;35.23;21.13;;;4.20;99.90;;;;;;5011394;28;20418;-69
2024/03/07 03:35:39;;;;;;;35.43;19.50;;;4.10;99.90;;;;;;5009315;28;20936;-68
2024/03/07 03:38:06;;;;;;;30.30;18.47;;;4.10;99.90;;;;;;5017256;28;20216;-67
2024/03/07 03:40:32;;;;;;;33.47;18.30;;;4.10;99.90;;;;;;5017266;28;20195;-67
2024/03/07 03:42:57;;;;;;;30.43;17.30;;;4.00;99.90;;;;;;5016876;28;20422;-68
2024/03/07 03:45:25;;;;;;;32.47;17.13;;;4.00;99.90;;;;;;5006026;28;20191;-69
2024/03/07 03:47:51;;;;;;;27.17;16.57;;;4.00;99.90;;;;;;5012690;28;20210;-67
2024/03/07 03:50:17;;;;;;;33.77;19.03;;;4.00;99.90;;;;;;5005733;28;20474;-68
2024/03/07 03:52:43;;;;;;;30.03;18.03;;;4.00;99.90;;;;;;5009956;28;20701;-69
2024/03/07 03:55:10;;;;;;;33.17;18.47;;;4.00;99.90;;;;;;5019097;28;20694;-68
2024/03/07 03:57:35;;;;;;;32.80;17.90;;;4.00;99.90;;;;;;5011001;28;20511;-68
2024/03/07 04:00:09;;;;;;;41.60;21.47;;;4.00;99.90;;;;;;5008849;28;20497;-70
2024/03/07 04:02:36;;;;;;;35.43;19.77;;;4.00;99.90;;;;;;5011331;28;20414;-68
2024/03/07 04:05:03;;;;;;;36.37;21.63;;;4.00;99.90;;;;;;5009552;28;20450;-68
2024/03/07 04:07:31;;;;;;;35.63;21.33;;;4.00;99.90;;;;;;5014678;28;20469;-69
2024/03/07 04:09:58;;;;;;;39.87;22.37;;;4.00;99.90;;;;;;5016700;28;20688;-68
2024/03/07 04:12:26;;;;;;;37.60;22.97;;;4.10;99.90;;;;;;5016600;28;20634;-68
2024/03/07 04:14:54;;;;;;;35.50;21.13;;;4.10;99.90;;;;;;5008870;28;20843;-69
2024/03/07 04:17:20;;;;;;;37.43;23.10;;;4.10;99.90;;;;;;5007273;28;20441;-69
2024/03/07 04:19:46;;;;;;;33.23;20.23;;;4.10;99.90;;;;;;5010083;28;20438;-68
2024/03/07 04:22:12;;;;;;;37.20;21.80;;;4.10;99.90;;;;;;5004866;28;20423;-68
2024/03/07 04:24:37;;;;;;;39.00;22.30;;;4.00;99.90;;;;;;5014134;28;20610;-69
2024/03/07 04:27:04;;;;;;;34.10;20.77;;;4.00;99.90;;;;;;5015864;28;20218;-67
2024/03/07 04:29:32;;;;;;;34.93;20.00;;;4.00;99.90;;;;;;5008521;28;20579;-69
2024/03/07 04:31:58;;;;;;;37.33;22.00;;;4.00;99.90;;;;;;5012020;28;20418;-69
2024/03/07 04:34:23;;;;;;;35.13;22.80;;;3.90;99.90;;;;;;5011725;28;20415;-69
2024/03/07 04:36:49;;;;;;;38.17;22.73;;;3.90;99.90;;;;;;5015468;28;20480;-68
2024/03/07 04:39:24;;;;;;;37.70;20.13;;;3.90;99.90;;;;;;5015550;28;20203;-68
2024/03/07 04:41:52;;;;;;;39.53;21.63;;;3.90;99.90;;;;;;5011721;28;20202;-67
2024/03/07 04:44:19;;;;;;;39.40;23.23;;;3.80;99.90;;;;;;5003457;28;20608;-68
2024/03/07 04:46:44;;;;;;;39.00;22.87;;;3.80;99.90;;;;;;5013895;28;20481;-68
2024/03/07 04:49:10;;;;;;;46.13;22.90;;;3.80;99.90;;;;;;5014074;28;20890;-67
2024/03/07 04:51:36;;;;;;;36.10;20.10;;;3.80;99.90;;;;;;5011238;28;20226;-69
2024/03/07 04:54:01;;;;;;;38.87;24.30;;;3.70;99.90;;;;;;5014935;28;20234;-68
2024/03/07 04:56:27;;;;;;;36.60;21.80;;;3.80;99.90;;;;;;5015601;28;20624;-69
2024/03/07 04:58:53;;;;;;;38.43;22.87;;;3.70;99.90;;;;;;5015638;28;20203;-70
2024/03/07 05:01:20;;;;;;;41.00;23.03;;;3.70;99.90;;;;;;5013846;28;20187;-68
2024/03/07 05:03:46;;;;;;;40.17;24.00;;;3.70;99.90;;;;;;5011746;28;20608;-69
2024/03/07 05:06:12;;;;;;;42.00;23.57;;;3.70;99.90;;;;;;5011114;28;20466;-70
2024/03/07 05:08:38;;;;;;;38.43;21.90;;;3.90;99.90;;;;;;5015341;28;20257;-67
2024/03/07 05:11:04;;;;;;;38.70;23.80;;;4.00;99.90;;;;;;5015786;28;20497;-70
2024/03/07 05:13:31;;;;;;;35.57;21.60;;;4.10;99.90;;;;;;5014435;28;20186;-69
2024/03/07 05:15:57;;;;;;;35.07;20.73;;;4.20;99.90;;;;;;5011662;28;20456;-70
2024/03/07 05:18:23;;;;;;;28.30;19.50;;;4.30;99.90;;;;;;5014819;28;20431;-69
2024/03/07 05:20:49;;;;;;;34.97;21.80;;;4.40;99.90;;;;;;5011035;28;20951;-69
2024/03/07 05:23:14;;;;;;;30.53;18.73;;;4.50;99.90;;;;;;5016865;28;20324;-70
2024/03/07 05:25:40;;;;;;;32.10;18.63;;;4.60;99.90;;;;;;5018134;28;20912;-70
2024/03/07 05:28:06;;;;;;;32.30;22.07;;;4.60;99.90;;;;;;5017284;28;20187;-68
2024/03/07 05:30:33;;;;;;;35.00;19.83;;;4.60;99.90;;;;;;5009612;28;21289;-72
2024/03/07 05:33:00;;;;;;;36.43;19.80;;;4.70;99.90;;;;;;5013651;28;20418;-69
2024/03/07 05:35:29;;;;;;;32.40;20.43;;;4.80;99.90;;;;;;5006078;28;20431;-70
2024/03/07 05:37:56;;;;;;;34.47;21.00;;;4.80;99.90;;;;;;5019068;28;20463;-71
2024/03/07 05:40:22;;;;;;;33.27;19.27;;;4.90;99.90;;;;;;5018166;28;20417;-70
2024/03/07 05:42:48;;;;;;;32.80;20.90;;;4.80;99.90;;;;;;5019185;28;20425;-69
2024/03/07 05:45:17;;;;;;;33.47;21.43;;;4.90;99.90;;;;;;5010706;28;20461;-69
2024/03/07 05:47:45;;;;;;;33.00;20.47;;;4.90;99.90;;;;;;5018863;28;20446;-71
2024/03/07 05:50:10;;;;;;;40.23;23.70;;;4.90;99.90;;;;;;5012817;28;20500;-70
2024/03/07 05:52:36;;;;;;;34.57;21.63;;;5.00;99.90;;;;;;5025163;28;20422;-72
2024/03/07 05:55:03;;;;;;;28.77;19.67;;;5.00;99.90;;;;;;5021094;28;20264;-73
2024/03/07 05:57:29;;;;;;;31.43;19.50;;;5.00;99.90;;;;;;5019229;28;20223;-74
2024/03/07 05:59:56;;;;;;;36.30;23.10;;;5.10;99.90;;;;;;5006328;28;20423;-71
2024/03/07 06:02:22;;;;;;;40.20;23.10;;;5.10;99.90;;;;;;5018627;28;20486;-70
2024/03/07 06:04:47;;;;;;;36.40;23.30;;;5.10;99.90;;;;;;5010376;28;20455;-71
2024/03/07 06:07:13;;;;;;;35.17;21.53;;;5.10;99.90;;;;;;5015684;28;20214;-72
2024/03/07 06:09:39;;;;;;;36.73;22.90;;;5.10;99.90;;;;;;5018728;28;20214;-71
2024/03/07 06:12:08;;;;;;;36.23;22.77;;;5.20;99.90;;;;;;5018372;28;20221;-70
2024/03/07 06:14:33;;;;;;;35.03;22.00;;;5.20;99.90;;;;;;5016413;28;20516;-72
2024/03/07 06:17:00;;;;;;;33.50;20.53;;;5.10;99.90;;;;;;5012159;28;20469;-72
2024/03/07 06:19:26;;;;;;;30.53;19.70;;;5.10;99.90;;;;;;5010558;28;20207;-71
2024/03/07 06:21:53;;;;;;;34.60;21.13;;;5.10;99.90;;;;;;5011236;28;20688;-71
2024/03/07 06:24:21;;;;;;;40.23;22.90;;;5.10;99.90;;;;;;4991240;28;20227;-72
2024/03/07 06:26:49;;;;;;;33.87;19.80;;;5.00;99.90;;;;;;5015418;28;20729;-72
2024/03/07 06:29:18;;;;;;;39.10;21.33;;;5.00;99.90;;;;;;4987664;28;20788;-72
2024/03/07 06:31:48;;;;;;;33.47;21.73;;;5.00;99.90;;;;;;5013445;28;20885;-74
2024/03/07 06:34:14;;;;;;;38.60;24.37;;;4.90;99.90;;;;;;4990433;28;20446;-73
2024/03/07 06:36:43;;;;;;;36.23;23.17;;;4.80;99.90;;;;;;5016037;28;20437;-71
2024/03/07 06:39:11;;;;;;;35.20;21.77;;;4.80;99.90;;;;;;4988184;28;20410;-72
2024/03/07 06:41:38;;;;;;;37.20;21.50;;;4.80;99.90;;;;;;5015663;28;20429;-73
2024/03/07 06:44:04;;;;;;;37.13;23.67;;;4.90;99.90;;;;;;5012804;28;20450;-71
2024/03/07 06:46:31;;;;;;;35.23;22.87;;;4.80;99.90;;;;;;5010730;28;20513;-74
2024/03/07 06:48:57;;;;;;;34.60;22.27;;;4.70;99.90;;;;;;5014640;28;20599;-69
2024/03/07 06:51:22;;;;;;;34.33;23.03;;;4.80;99.90;;;;;;5016582;28;20489;-74
2024/03/07 06:53:50;;;;;;;34.07;22.00;;;4.80;99.90;;;;;;5015154;28;20195;-72
2024/03/07 06:56:16;;;;;;;32.57;20.23;;;4.70;99.90;;;;;;4993968;28;20482;-71
2024/03/07 06:58:42;;;;;;;32.07;21.47;;;4.70;99.90;;;;;;5020267;28;20714;-74
2024/03/07 07:01:10;;;;;;;35.00;22.37;;;4.70;99.90;;;;;;4992098;28;20440;-70
2024/03/07 07:03:38;;;;;;;31.13;20.80;;;4.70;99.90;;;;;;5017207;28;20449;-72
2024/03/07 07:06:06;;;;;;;37.97;21.93;;;4.70;99.90;;;;;;4987204;28;20454;-71
2024/03/07 07:08:32;;;;;;;37.47;21.67;;;4.70;99.90;;;;;;5004429;28;20900;-76
2024/03/07 07:10:58;;;;;;;40.43;23.13;;;4.80;99.90;;;;;;5007788;28;20496;-73
2024/03/07 07:13:24;;;;;;;33.23;21.57;;;4.90;99.90;;;;;;5020795;28;20423;-72
2024/03/07 07:15:50;;;;;;;35.60;21.70;;;4.80;99.90;;;;;;5016201;28;20557;-73
2024/03/07 07:18:16;;;;;;;35.70;21.43;;;4.90;99.90;;;;;;4999030;28;20457;-71
2024/03/07 07:20:41;;;;;;;35.30;21.97;;;4.90;99.90;;;;;;5016671;28;20285;-71
2024/03/07 07:23:08;;;;;;;36.93;22.40;;;4.90;99.90;;;;;;5023346;28;20888;-73
2024/03/07 07:25:34;;;;;;;33.13;20.20;;;4.90;99.90;;;;;;4992371;28;20191;-73
2024/03/07 07:28:00;;;;;;;31.83;20.87;;;5.00;99.90;;;;;;5023767;28;20818;-72
2024/03/07 07:30:27;;;;;;;33.10;20.70;;;5.10;99.90;;;;;;5010639;28;20531;-72
2024/03/07 07:32:53;;;;;;;36.80;21.80;;;5.10;99.90;;;;;;4989107;28;20431;-72
2024/03/07 07:35:19;;;;;;;30.97;19.60;;;5.30;99.90;;;;;;5020618;28;20218;-75
2024/03/07 07:37:47;;;;;;;38.20;22.07;;;5.30;99.90;;;;;;5024785;28;20901;-73
2024/03/07 07:40:18;;;;;;;29.73;20.30;;;5.40;99.90;;;;;;5005290;28;20468;-72
2024/03/07 07:42:47;;;;;;;30.70;21.73;;;5.50;99.90;;;;;;5021918;28;20425;-72
2024/03/07 07:45:15;;;;;;;35.30;22.13;;;5.70;99.90;;;;;;5016308;28;20453;-74
2024/03/07 07:47:51;;;;;;;35.93;22.03;;;5.70;99.90;;;;;;5018979;28;20445;-73
2024/03/07 07:50:18;;;;;;;31.30;21.10;;;5.60;99.90;;;;;;5014353;28;20495;-72
2024/03/07 07:52:53;;;;;;;33.77;19.87;;;5.70;99.90;;;;;;5021664;28;20430;-72
2024/03/07 07:55:27;;;;;;;33.33;21.57;;;5.70;99.90;;;;;;5020174;28;20410;-70
2024/03/07 07:58:04;;;;;;;35.80;22.37;;;5.70;99.90;;;;;;5014683;28;20945;-72
2024/03/07 08:00:30;;;;;;;34.30;21.53;;;5.80;99.90;;;;;;5014449;28;20430;-71
2024/03/07 08:02:58;;;;;;;31.03;20.00;;;5.80;99.90;;;;;;4997239;28;20437;-73
2024/03/07 08:05:30;;;;;;;30.07;20.03;;;5.90;99.90;;;;;;4988970;28;20538;-72
2024/03/07 08:07:57;;;;;;;30.80;22.40;;;5.90;99.90;;;;;;5014780;28;20442;-72
2024/03/07 08:10:30;;;;;;;29.20;19.10;;;5.90;99.90;;;;;;5019869;28;20425;-69
2024/03/07 08:12:57;;;;;;;26.43;17.80;;;6.00;99.90;;;;;;4994549;28;20436;-71
2024/03/07 08:15:26;;;;;;;30.73;19.23;;;6.10;99.90;;;;;;5014965;28;20433;-70
2024/03/07 08:17:52;;;;;;;27.47;19.80;;;6.20;99.90;;;;;;5017044;28;20426;-70
2024/03/07 08:20:20;;;;;;;34.23;19.07;;;6.30;99.90;;;;;;5009419;28;20461;-72
2024/03/07 08:22:47;;;;;;;27.63;18.93;;;6.30;99.90;;;;;;5005514;28;20527;-75
2024/03/07 08:25:15;;;;;;;27.20;19.50;;;6.30;99.90;;;;;;5023416;28;20568;-73
2024/03/07 08:27:42;;;;;;;26.00;16.80;;;6.50;99.90;;;;;;5017505;28;20452;-71
2024/03/07 08:30:12;;;;;;;28.00;19.73;;;6.70;99.90;;;;;;4989382;28;20416;-73
2024/03/07 08:32:39;;;;;;;28.13;17.60;;;6.70;99.90;;;;;;5002496;28;20457;-71
2024/03/07 08:35:08;;;;;;;31.10;19.73;;;6.80;99.90;;;;;;4987875;28;20684;-73
2024/03/07 08:37:57;;;;;;;24.40;16.87;;;6.80;99.90;;;;;;5010306;28;20441;-72
2024/03/07 08:40:30;;;;;;;24.67;17.07;;;7.00;99.90;;;;;;5014324;28;20512;-72
2024/03/07 08:42:59;;;;;;;21.33;15.13;;;7.00;99.90;;;;;;5006808;28;20434;-72
2024/03/07 08:45:26;;;;;;;23.08;16.63;;;7.00;99.90;;;;;;4999324;28;20541;-71
2024/03/07 08:47:56;;;;;;;22.87;15.80;;;7.10;99.90;;;;;;4989421;28;20183;-72
2024/03/07 08:50:22;;;;;;;21.43;15.50;;;7.10;99.00;;;;;;5013559;28;20465;-74
2024/03/07 08:52:49;;;;;;;21.83;14.80;;;7.20;96.30;;;;;;4997169;28;20418;-73
2024/03/07 08:55:16;;;;;;;26.93;15.83;;;7.30;95.10;;;;;;5014136;28;20457;-71
2024/03/07 08:57:44;;;;;;;25.83;17.13;;;7.40;94.30;;;;;;4999670;28;20468;-76
2024/03/07 09:00:22;;;;;;;20.40;15.27;;;7.40;93.20;;;;;;4986350;28;20457;-74
2024/03/07 09:02:50;;;;;;;21.83;14.87;;;7.40;93.30;;;;;;5011994;28;20694;-70
2024/03/07 09:05:16;;;;;;;21.03;15.13;;;7.50;91.50;;;;;;5007610;28;20569;-74
2024/03/07 09:07:41;;;;;;;23.70;14.70;;;7.50;91.20;;;;;;5001924;28;20478;-72
2024/03/07 09:10:09;;;;;;;21.40;15.53;;;7.60;90.20;;;;;;5021590;28;20198;-74
2024/03/07 09:12:36;;;;;;;20.33;14.07;;;7.60;89.20;;;;;;4971384;28;20211;-71
2024/03/07 09:15:06;;;;;;;20.70;15.00;;;7.70;88.30;;;;;;5013564;28;21014;-73
2024/03/07 09:17:31;;;;;;;22.17;14.80;;;7.70;86.10;;;;;;4988735;28;20457;-75
2024/03/07 09:19:57;;;;;;;20.40;14.17;;;7.80;85.20;;;;;;4997399;28;20442;-73
2024/03/07 09:22:23;;;;;;;20.53;14.00;;;7.80;84.60;;;;;;5012256;28;20196;-72
2024/03/07 09:24:48;;;;;;;23.00;15.47;;;7.80;84.90;;;;;;5023625;28;20273;-73
2024/03/07 09:27:15;;;;;;;21.70;13.80;;;7.80;84.40;;;;;;5013651;28;20202;-73
2024/03/07 09:29:41;;;;;;;22.60;16.00;;;7.80;84.50;;;;;;5015343;28;20203;-73
2024/03/07 09:32:10;;;;;;;26.13;15.63;;;7.90;83.80;;;;;;5016837;28;20513;-76
2024/03/07 09:34:36;;;;;;;20.87;14.23;;;8.00;84.20;;;;;;4988194;28;20689;-73
2024/03/07 09:37:02;;;;;;;20.67;14.57;;;8.10;83.30;;;;;;5015805;28;20455;-74
2024/03/07 09:39:28;;;;;;;20.50;15.00;;;8.30;82.80;;;;;;5013476;28;20427;-74
2024/03/07 09:42:11;;;;;;;25.07;14.30;;;8.50;82.40;;;;;;5123146;27;20504;-72
2024/03/07 09:44:40;;;;;;;20.77;13.63;;;8.70;79.90;;;;;;5105374;28;20503;-71
2024/03/07 09:47:07;;;;;;;23.80;14.30;;;8.80;77.90;;;;;;5093978;28;20438;-72
2024/03/07 09:49:35;;;;;;;19.10;13.83;;;9.00;77.30;;;;;;5116441;28;20482;-72
2024/03/07 09:52:08;;;;;;;21.03;14.30;;;9.00;77.00;;;;;;5078994;28;20479;-74
2024/03/07 09:54:34;;;;;;;21.07;13.30;;;9.10;75.00;;;;;;5107188;28;20422;-73
2024/03/07 09:57:02;;;;;;;22.90;15.17;;;9.10;74.10;;;;;;5094031;28;20489;-75
2024/03/07 09:59:31;;;;;;;21.83;14.33;;;9.00;73.90;;;;;;5074113;28;20437;-75
2024/03/07 10:01:59;;;;;;;22.67;14.10;;;9.10;73.10;;;;;;5109610;28;20904;-72
2024/03/07 10:04:35;;;;;;;21.57;14.57;;;9.00;73.70;;;;;;5109519;28;20419;-71
2024/03/07 10:07:01;;;;;;;19.23;13.63;;;9.10;73.50;;;;;;5108197;28;20437;-72
2024/03/07 10:09:30;;;;;;;22.00;14.30;;;9.20;72.10;;;;;;5109311;28;20453;-72
2024/03/07 10:11:59;;;;;;;22.93;14.27;;;9.40;72.20;;;;;;5093253;28;20180;-73
2024/03/07 10:14:25;;;;;;;21.83;16.30;;;9.40;71.80;;;;;;5117254;28;20470;-72
2024/03/07 10:16:56;;;;;;;27.90;16.80;;;9.50;71.90;;;;;;5107691;28;20457;-74
2024/03/07 10:19:22;;;;;;;20.57;13.27;;;9.50;69.30;;;;;;5118523;28;20217;-74
2024/03/07 10:21:48;;;;;;;23.30;14.37;;;9.50;71.10;;;;;;5111813;28;20642;-74
2024/03/07 10:24:14;;;;;;;22.63;15.83;;;9.60;70.90;;;;;;5111937;28;20210;-73
2024/03/07 10:26:40;;;;;;;24.57;15.23;;;9.80;70.00;;;;;;5110621;28;20682;-74
2024/03/07 10:29:07;;;;;;;20.70;14.73;;;9.70;69.80;;;;;;5115642;28;20490;-74
2024/03/07 10:31:34;;;;;;;23.03;15.63;;;9.60;68.80;;;;;;5112780;28;20888;-71
2024/03/07 10:34:04;;;;;;;24.67;16.40;;;9.50;68.20;;;;;;5108288;28;20409;-73
2024/03/07 10:36:30;;;;;;;23.77;16.07;;;9.30;68.70;;;;;;5103476;28;20439;-70
2024/03/07 10:39:15;;;;;;;22.37;15.20;;;9.30;68.50;;;;;;5111911;28;20426;-71
2024/03/07 10:41:50;;;;;;;21.13;14.47;;;9.30;69.80;;;;;;5098183;28;20466;-73
2024/03/07 10:44:24;;;;;;;20.90;14.40;;;9.10;70.40;;;;;;5094098;28;20468;-74
2024/03/07 10:46:53;;;;;;;25.83;15.70;;;9.00;70.80;;;;;;5073441;28;20438;-74
2024/03/07 10:49:24;;;;;;;20.03;14.37;;;9.00;71.20;;;;;;5091936;28;20858;-73
2024/03/07 10:52:19;;;;;;;23.47;14.77;;;9.10;71.60;;;;;;5083494;28;20450;-74
2024/03/07 10:54:54;;;;;;;21.07;13.30;;;9.30;70.60;;;;;;5078847;28;20426;-73
2024/03/07 10:57:44;;;;;;;21.23;14.00;;;9.40;70.10;;;;;;5074954;28;20484;-71
2024/03/07 11:00:29;;;;;;;22.70;14.20;;;9.60;70.00;;;;;;5084862;28;20443;-72
2024/03/07 11:02:56;;;;;;;19.33;14.10;;;9.70;69.40;;;;;;5085566;28;20423;-74
2024/03/07 11:05:31;;;;;;;23.97;15.30;;;9.90;69.30;;;;;;5045087;28;20432;-71
2024/03/07 11:08:06;;;;;;;20.60;14.13;;;10.20;66.70;;;;;;5069308;28;20415;-74
2024/03/07 11:10:34;;;;;;;23.97;15.37;;;10.40;65.20;;;;;;5074199;28;20471;-73
2024/03/07 11:13:00;;;;;;;18.60;13.37;;;10.50;64.20;;;;;;5073503;28;20419;-72
2024/03/07 11:15:27;;;;;;;22.17;13.93;;;10.50;65.00;;;;;;5049275;28;20442;-72
2024/03/07 11:17:54;;;;;;;18.07;13.40;;;10.70;64.60;;;;;;5085106;28;20451;-74
2024/03/07 11:20:25;;;;;;;18.87;13.03;;;11.00;64.10;;;;;;5080331;28;20474;-74
2024/03/07 11:22:53;;;;;;;18.70;14.07;;;11.10;63.30;;;;;;5072175;28;20463;-75
2024/03/07 11:25:21;;;;;;;18.40;14.37;;;11.10;62.40;;;;;;5087697;28;20434;-78
2024/03/07 11:27:59;;;;;;;18.83;14.50;;;11.30;62.30;;;;;;5056907;28;20448;-74
2024/03/07 11:30:25;;;;;;;18.47;13.73;;;11.20;61.40;;;;;;5061089;28;20503;-75
2024/03/07 11:32:56;;;;;;;18.17;13.17;;;11.20;60.70;;;;;;5073458;28;20407;-75
2024/03/07 11:35:35;;;;;;;19.47;14.10;;;11.20;60.90;;;;;;5056219;28;20432;-74
2024/03/07 11:38:04;;;;;;;18.67;13.90;;;11.30;60.30;;;;;;5075894;28;20427;-74
2024/03/07 11:40:30;;;;;;;20.00;13.63;;;11.10;60.20;;;;;;5075658;28;20493;-76
2024/03/07 11:42:59;;;;;;;21.63;13.70;;;11.00;62.00;;;;;;5087296;28;20416;-75
2024/03/07 11:45:26;;;;;;;17.83;13.60;;;11.00;61.40;;;;;;5087380;28;20196;-75
2024/03/07 11:50:49;;;;;;;19.83;16.67;;;11.10;60.80;;;;;;5084272;28;20434;-75
2024/03/07 11:53:15;;;;;;;16.83;13.93;;;11.30;61.00;;;;;;5075600;28;20192;-73
2024/03/07 11:55:51;;;;;;;17.97;12.60;;;11.20;61.40;;;;;;5088302;28;20431;-75
2024/03/07 11:58:23;;;;;;;19.40;14.50;;;11.30;61.50;;;;;;5112563;28;20514;-76
2024/03/07 12:00:51;;;;;;;18.20;14.83;;;11.20;61.10;;;;;;5104066;28;20437;-73
2024/03/07 12:03:22;;;;;;;17.37;13.30;;;11.20;61.40;;;;;;5106527;28;20413;-71
2024/03/07 12:05:49;;;;;;;21.00;16.10;;;11.30;61.90;;;;;;5111114;28;20442;-75
2024/03/07 12:08:15;;;;;;;18.33;13.93;;;11.40;60.60;;;;;;5108114;28;20417;-74
2024/03/07 12:10:45;;;;;;;18.60;13.47;;;11.50;59.90;;;;;;5106121;28;20442;-72
2024/03/07 12:13:11;;;;;;;23.43;17.57;;;11.60;59.60;;;;;;5091393;28;20423;-75
2024/03/07 12:15:38;;;;;;;15.03;11.87;;;11.40;59.60;;;;;;5101161;28;20509;-75
2024/03/07 12:18:14;;;;;;;17.93;13.33;;;11.40;60.10;;;;;;5106570;28;20497;-76
2024/03/07 12:20:41;;;;;;;20.13;13.93;;;11.40;60.30;;;;;;5072278;28;20461;-75
2024/03/07 12:23:08;;;;;;;17.87;12.77;;;11.30;60.30;;;;;;5108296;28;20429;-75
2024/03/07 12:25:38;;;;;;;15.53;12.23;;;11.20;60.90;;;;;;5104740;28;20836;-75
2024/03/07 12:28:16;;;;;;;18.27;11.77;;;11.10;60.80;;;;;;5083397;28;20492;-72
2024/03/07 12:30:45;;;;;;;15.13;12.17;;;11.00;61.00;;;;;;5094150;28;20425;-72
2024/03/07 12:33:13;;;;;;;17.23;12.30;;;11.00;61.00;;;;;;5110253;28;20884;-75
2024/03/07 12:35:43;;;;;;;15.90;11.77;;;10.80;61.40;;;;;;5096117;28;20421;-76
2024/03/07 12:38:15;;;;;;;15.90;11.87;;;10.70;61.90;;;;;;5101042;28;20468;-78
2024/03/07 12:40:40;;;;;;;18.03;11.10;;;10.70;62.50;;;;;;5125094;28;20508;-75